Observation data for Olton on 05/14/2018      Previous  Date  Next       Current Mesonet Observations  Soil Data  Daily Summary Page  Observations in Plain Language
KONS 140500Z 17012KT 21/M00 A2994 RMK A01 T02141001  RH  024%=      5-min Rain = 0
KONS 140505Z 17012KT 21/00 A2994 RMK A01 T02120001  RH  025%=      5-min Rain = 0
KONS 140510Z 17012KT 21/01 A2994 RMK A01 T02120010  RH  026%=      5-min Rain = 0
KONS 140515Z 17012KT 21/03 A2994 RMK A01 T02120030  RH  030%=      5-min Rain = 0
KONS 140520Z 17012KT 21/05 A2994 RMK A01 T02110049  RH  035%=      5-min Rain = 0
KONS 140525Z 17012KT 21/07 A2994 RMK A01 T02130066  RH  039%=      5-min Rain = 0
KONS 140530Z 17012KT 22/08 A2994 RMK A01 T02150079  RH  042%=      5-min Rain = 0
KONS 140535Z 17012G17KT 22/09 A2994 RMK A01 T02160089  RH  045%=      5-min Rain = 0
KONS 140540Z 18010KT 21/09 A2995 RMK A01 T02130093  RH  047%=      5-min Rain = 0
KONS 140545Z 17011KT 21/10 A2995 RMK A01 T02090097  RH  049%=      5-min Rain = 0
KONS 140550Z 17012KT 21/10 A2995 RMK A01 T02120103  RH  051%=      5-min Rain = 0
KONS 140555Z 17011KT 22/11 A2995 RMK A01 T02150106  RH  051%=      5-min Rain = 0
KONS 140600Z 18011KT 21/11 A2995 RMK A01 T02130110  RH  053%=      5-min Rain = 0
KONS 140605Z 19009KT 21/11 A2995 RMK A01 T02090112  RH  055%=      5-min Rain = 0
KONS 140610Z 19009KT 20/11 A2995 RMK A01 T02030112  RH  057%=      5-min Rain = 0
KONS 140615Z 19009KT 20/11 A2995 RMK A01 T02000110  RH  057%=      5-min Rain = 0
KONS 140620Z 18009KT 20/11 A2995 RMK A01 T01980111  RH  058%=      5-min Rain = 0
KONS 140625Z 18009KT 20/11 A2995 RMK A01 T01980113  RH  059%=      5-min Rain = 0
KONS 140630Z 18010KT 20/11 A2995 RMK A01 T01980114  RH  059%=      5-min Rain = 0
KONS 140635Z 18010KT 20/12 A2995 RMK A01 T01990117  RH  060%=      5-min Rain = 0
KONS 140640Z 18009KT 20/12 A2995 RMK A01 T01990119  RH  061%=      5-min Rain = 0
KONS 140645Z 18009KT 20/12 A2995 RMK A01 T01990121  RH  062%=      5-min Rain = 0
KONS 140650Z 19012KT 20/12 A2995 RMK A01 T02020121  RH  061%=      5-min Rain = 0
KONS 140655Z 19013KT 21/12 A2994 RMK A01 T02080121  RH  058%=      5-min Rain = 0
KONS 140700Z 19012KT 21/12 A2994 RMK A01 T02110120  RH  057%=      5-min Rain = 0
KONS 140705Z 19012KT 21/12 A2994 RMK A01 T02110120  RH  057%=      5-min Rain = 0
KONS 140710Z 19012KT 21/12 A2994 RMK A01 T02110119  RH  057%=      5-min Rain = 0
KONS 140715Z 19013KT 21/12 A2994 RMK A01 T02110118  RH  056%=      5-min Rain = 0
KONS 140720Z 19013KT 21/12 A2994 RMK A01 T02100117  RH  056%=      5-min Rain = 0
KONS 140725Z 19013KT 21/12 A2994 RMK A01 T02110116  RH  056%=      5-min Rain = 0
KONS 140730Z 19012KT 21/12 A2994 RMK A01 T02100117  RH  056%=      5-min Rain = 0
KONS 140735Z 19012KT 21/12 A2994 RMK A01 T02090115  RH  056%=      5-min Rain = 0
KONS 140740Z 19012KT 21/12 A2993 RMK A01 T02070115  RH  056%=      5-min Rain = 0
KONS 140745Z 19012KT 21/11 A2993 RMK A01 T02050114  RH  057%=      5-min Rain = 0
KONS 140750Z 19012KT 21/11 A2994 RMK A01 T02060112  RH  056%=      5-min Rain = 0
KONS 140755Z 19012KT 21/11 A2994 RMK A01 T02050112  RH  056%=      5-min Rain = 0
KONS 140800Z 19012KT 20/11 A2994 RMK A01 T02040112  RH  056%=      5-min Rain = 0
KONS 140805Z 19011KT 20/11 A2993 RMK A01 T02040113  RH  057%=      5-min Rain = 0
KONS 140810Z 19011KT 20/11 A2993 RMK A01 T02030114  RH  058%=      5-min Rain = 0
KONS 140815Z 20011KT 20/11 A2993 RMK A01 T02020114  RH  058%=      5-min Rain = 0
KONS 140820Z 20012KT 20/11 A2993 RMK A01 T02020114  RH  058%=      5-min Rain = 0
KONS 140825Z 20011KT 20/11 A2993 RMK A01 T02010114  RH  058%=      5-min Rain = 0
KONS 140830Z 19010KT 20/11 A2993 RMK A01 T02000114  RH  059%=      5-min Rain = 0
KONS 140835Z 19009KT 20/12 A2993 RMK A01 T01970115  RH  060%=      5-min Rain = 0
KONS 140840Z 20009KT 20/12 A2994 RMK A01 T01950115  RH  061%=      5-min Rain = 0
KONS 140845Z 20009KT 19/12 A2994 RMK A01 T01940115  RH  061%=      5-min Rain = 0
KONS 140850Z 20009KT 19/12 A2994 RMK A01 T01930115  RH  061%=      5-min Rain = 0
KONS 140855Z 20008KT 19/12 A2994 RMK A01 T01910115  RH  062%=      5-min Rain = 0
KONS 140900Z 19008KT 19/12 A2994 RMK A01 T01890115  RH  064%=      5-min Rain = 0
KONS 140905Z 19008KT 19/12 A2994 RMK A01 T01870117  RH  065%=      5-min Rain = 0
KONS 140910Z 19008KT 18/12 A2994 RMK A01 T01840118  RH  066%=      5-min Rain = 0
KONS 140915Z 19008KT 18/12 A2994 RMK A01 T01820119  RH  068%=      5-min Rain = 0
KONS 140920Z 19008KT 18/12 A2994 RMK A01 T01790119  RH  069%=      5-min Rain = 0
KONS 140925Z 19007KT 18/12 A2994 RMK A01 T01760119  RH  070%=      5-min Rain = 0
KONS 140930Z 20007KT 17/12 A2994 RMK A01 T01730118  RH  072%=      5-min Rain = 0
KONS 140935Z 20008KT 17/12 A2994 RMK A01 T01700119  RH  073%=      5-min Rain = 0
KONS 140940Z 20008KT 17/12 A2994 RMK A01 T01700119  RH  073%=      5-min Rain = 0
KONS 140945Z 20008KT 17/12 A2995 RMK A01 T01700120  RH  074%=      5-min Rain = 0
KONS 140950Z 20008KT 17/12 A2995 RMK A01 T01680120  RH  074%=      5-min Rain = 0
KONS 140955Z 20008KT 17/12 A2995 RMK A01 T01670120  RH  075%=      5-min Rain = 0
KONS 141000Z 20008KT 17/12 A2995 RMK A01 T01660120  RH  076%=      5-min Rain = 0
KONS 141005Z 21008KT 17/12 A2995 RMK A01 T01660121  RH  076%=      5-min Rain = 0
KONS 141010Z 20007KT 17/12 A2995 RMK A01 T01670121  RH  076%=      5-min Rain = 0
KONS 141015Z 21007KT 17/12 A2995 RMK A01 T01660120  RH  076%=      5-min Rain = 0
KONS 141020Z 21007KT 16/12 A2995 RMK A01 T01630119  RH  076%=      5-min Rain = 0
KONS 141025Z 22007KT 16/12 A2995 RMK A01 T01600117  RH  077%=      5-min Rain = 0
KONS 141030Z 23007KT 16/12 A2996 RMK A01 T01570115  RH  077%=      5-min Rain = 0
KONS 141035Z 22006KT 15/11 A2996 RMK A01 T01540113  RH  078%=      5-min Rain = 0
KONS 141040Z 21006KT 15/11 A2996 RMK A01 T01510113  RH  079%=      5-min Rain = 0
KONS 141045Z 20007KT 15/11 A2996 RMK A01 T01510113  RH  080%=      5-min Rain = 0
KONS 141050Z 19007KT 15/11 A2996 RMK A01 T01500114  RH  081%=      5-min Rain = 0
KONS 141055Z 19007KT 15/12 A2996 RMK A01 T01510116  RH  081%=      5-min Rain = 0
KONS 141100Z 19007KT 15/12 A2996 RMK A01 T01510117  RH  081%=      5-min Rain = 0
KONS 141105Z 20007KT 15/12 A2996 RMK A01 T01530118  RH  081%=      5-min Rain = 0
KONS 141110Z 19006KT 15/12 A2996 RMK A01 T01540119  RH  081%=      5-min Rain = 0
KONS 141115Z 18006KT 15/12 A2996 RMK A01 T01520118  RH  081%=      5-min Rain = 0
KONS 141120Z 18006KT 15/12 A2997 RMK A01 T01500117  RH  082%=      5-min Rain = 0
KONS 141125Z 19005KT 15/12 A2997 RMK A01 T01500119  RH  083%=      5-min Rain = 0
KONS 141130Z 19005KT 15/12 A2997 RMK A01 T01500118  RH  083%=      5-min Rain = 0
KONS 141135Z 20006KT 15/12 A2997 RMK A01 T01480116  RH  083%=      5-min Rain = 0
KONS 141140Z 24005KT 15/12 A2997 RMK A01 T01460116  RH  084%=      5-min Rain = 0
KONS 141145Z 24005KT 14/11 A2997 RMK A01 T01440114  RH  084%=      5-min Rain = 0
KONS 141150Z 22005KT 14/12 A2997 RMK A01 T01430115  RH  085%=      5-min Rain = 0
KONS 141155Z 22005KT 15/12 A2997 RMK A01 T01450118  RH  085%=      5-min Rain = 0
KONS 141200Z 22007KT 15/12 A2997 RMK A01 T01470119  RH  085%=      5-min Rain = 0
KONS 141205Z 21007KT 14/12 A2997 RMK A01 T01440116  RH  084%=      5-min Rain = 0
KONS 141210Z 22006KT 14/12 A2998 RMK A01 T01430116  RH  085%=      5-min Rain = 0
KONS 141215Z 26004KT 14/11 A2998 RMK A01 T01420114  RH  085%=      5-min Rain = 0
KONS 141220Z 23004KT 14/11 A2999 RMK A01 T01370110  RH  085%=      5-min Rain = 0
KONS 141225Z 21004KT 14/11 A2999 RMK A01 T01370112  RH  086%=      5-min Rain = 0
KONS 141230Z 18004KT 14/11 A2999 RMK A01 T01370112  RH  086%=      5-min Rain = 0
KONS 141235Z 19005KT 14/12 A2999 RMK A01 T01380115  RH  087%=      5-min Rain = 0
KONS 141240Z 20005KT 14/12 A2999 RMK A01 T01430120  RH  087%=      5-min Rain = 0
KONS 141245Z 20004KT 15/13 A2999 RMK A01 T01490125  RH  087%=      5-min Rain = 0
KONS 141250Z 18005KT 16/13 A2999 RMK A01 T01550130  RH  087%=      5-min Rain = 0
KONS 141255Z 18005KT 16/13 A2999 RMK A01 T01610134  RH  086%=      5-min Rain = 0
KONS 141300Z 17007KT 17/14 A30 RMK A01 T01680137  RH  084%=      5-min Rain = 0
KONS 141305Z 17007KT 17/14 A30 RMK A01 T01730139  RH  082%=      5-min Rain = 0
KONS 141310Z 18008KT 18/14 A30 RMK A01 T01780140  RH  080%=      5-min Rain = 0
KONS 141315Z 18008KT 18/14 A30 RMK A01 T01820141  RH  079%=      5-min Rain = 0
KONS 141320Z 19009KT 19/14 A30 RMK A01 T01860142  RH  077%=      5-min Rain = 0
KONS 141325Z 19009KT 19/14 A30 RMK A01 T01900144  RH  076%=      5-min Rain = 0
KONS 141330Z 19010KT 19/14 A30 RMK A01 T01920144  RH  075%=      5-min Rain = 0
KONS 141335Z 19009KT 20/15 A30 RMK A01 T01950145  RH  075%=      5-min Rain = 0
KONS 141340Z 18009KT 20/15 A30 RMK A01 T01980146  RH  073%=      5-min Rain = 0
KONS 141345Z 18010KT 20/15 A30 RMK A01 T02020147  RH  072%=      5-min Rain = 0
KONS 141350Z 19011KT 20/15 A3001 RMK A01 T02040148  RH  072%=      5-min Rain = 0
KONS 141355Z 19011KT 21/15 A3001 RMK A01 T02060149  RH  071%=      5-min Rain = 0
KONS 141400Z 19010KT 21/15 A30 RMK A01 T02100152  RH  071%=      5-min Rain = 0
KONS 141405Z 19010KT 21/15 A3001 RMK A01 T02140153  RH  070%=      5-min Rain = 0
KONS 141410Z 19011KT 22/15 A3001 RMK A01 T02160154  RH  069%=      5-min Rain = 0
KONS 141415Z 19011KT 22/16 A3001 RMK A01 T02190156  RH  069%=      5-min Rain = 0
KONS 141420Z 20012KT 22/16 A3001 RMK A01 T02220156  RH  068%=      5-min Rain = 0
KONS 141425Z 19012KT 23/16 A3001 RMK A01 T02260159  RH  067%=      5-min Rain = 0
KONS 141430Z 19011KT 23/16 A3001 RMK A01 T02290160  RH  067%=      5-min Rain = 0
KONS 141435Z 19011KT 23/16 A3001 RMK A01 T02330161  RH  065%=      5-min Rain = 0
KONS 141440Z 19012KT 23/16 A3001 RMK A01 T02340160  RH  065%=      5-min Rain = 0
KONS 141445Z 19012KT 24/16 A3001 RMK A01 T02360160  RH  064%=      5-min Rain = 0
KONS 141450Z 19012G17KT 24/16 A3001 RMK A01 T02380159  RH  063%=      5-min Rain = 0
KONS 141455Z 19013KT 24/16 A3001 RMK A01 T02380158  RH  062%=      5-min Rain = 0
KONS 141500Z 20011G16KT 24/16 A3001 RMK A01 T02420159  RH  061%=      5-min Rain = 0
KONS 141505Z 19012KT 24/16 A3001 RMK A01 T02430157  RH  060%=      5-min Rain = 0
KONS 141510Z 19011KT 25/16 A3001 RMK A01 T02450157  RH  059%=      5-min Rain = 0
KONS 141515Z 20011G17KT 25/16 A3001 RMK A01 T02480156  RH  058%=      5-min Rain = 0
KONS 141520Z 19010KT 25/16 A3001 RMK A01 T02520156  RH  057%=      5-min Rain = 0
KONS 141525Z 20011KT 25/15 A3001 RMK A01 T02540153  RH  055%=      5-min Rain = 0
KONS 141530Z 20012KT 26/15 A3001 RMK A01 T02550147  RH  052%=      5-min Rain = 0
KONS 141535Z 20010G15KT 26/15 A30 RMK A01 T02580149  RH  052%=      5-min Rain = 0
KONS 141540Z 20010KT 26/15 A30 RMK A01 T02610149  RH  051%=      5-min Rain = 0
KONS 141545Z 21010KT 26/14 A30 RMK A01 T02620140  RH  048%=      5-min Rain = 0
KONS 141550Z 22010G15KT 27/14 A30 RMK A01 T02670140  RH  047%=      5-min Rain = 0
KONS 141555Z 21009KT 27/14 A30 RMK A01 T02700135  RH  044%=      5-min Rain = 0
KONS 141600Z 21009G15KT 27/13 A30 RMK A01 T02720131  RH  043%=      5-min Rain = 0
KONS 141605Z 21009G14KT 27/12 A30 RMK A01 T02730124  RH  040%=      5-min Rain = 0
KONS 141610Z 23009KT 28/12 A30 RMK A01 T02750119  RH  039%=      5-min Rain = 0
KONS 141615Z 22009KT 28/12 A2999 RMK A01 T02770121  RH  039%=      5-min Rain = 0
KONS 141620Z 21009KT 28/11 A2999 RMK A01 T02790110  RH  036%=      5-min Rain = 0
KONS 141625Z 20006KT 28/10 A2999 RMK A01 T02820099  RH  032%=      5-min Rain = 0
KONS 141630Z 21007KT 28/10 A2999 RMK A01 T02820095  RH  031%=      5-min Rain = 0
KONS 141635Z 23007G12KT 28/09 A2999 RMK A01 T02820090  RH  031%=      5-min Rain = 0
KONS 141640Z 25005KT 29/10 A2999 RMK A01 T02870095  RH  031%=      5-min Rain = 0
KONS 141645Z 24008KT 29/09 A2999 RMK A01 T02900089  RH  029%=      5-min Rain = 0
KONS 141650Z 24006KT 29/08 A30 RMK A01 T02900081  RH  027%=      5-min Rain = 0
KONS 141655Z 22006KT 29/09 A2999 RMK A01 T02890089  RH  029%=      5-min Rain = 0
KONS 141700Z 24008KT 29/08 A2999 RMK A01 T02910081  RH  027%=      5-min Rain = 0
KONS 141705Z 23005KT 29/08 A2999 RMK A01 T02900081  RH  027%=      5-min Rain = 0
KONS 141710Z 25008KT 29/09 A2999 RMK A01 T02890087  RH  029%=      5-min Rain = 0
KONS 141715Z 24007KT 29/08 A2999 RMK A01 T02910081  RH  027%=      5-min Rain = 0
KONS 141720Z 23004KT 29/08 A2999 RMK A01 T02940084  RH  027%=      5-min Rain = 0
KONS 141725Z 24006KT 30/08 A2999 RMK A01 T02960084  RH  027%=      5-min Rain = 0
KONS 141730Z 24007G12KT 29/08 A2998 RMK A01 T02940078  RH  026%=      5-min Rain = 0
KONS 141735Z 24005KT 29/08 A2998 RMK A01 T02930079  RH  027%=      5-min Rain = 0
KONS 141740Z 24007KT 29/08 A2998 RMK A01 T02930080  RH  027%=      5-min Rain = 0
KONS 141745Z 24006KT 29/07 A2998 RMK A01 T02940073  RH  025%=      5-min Rain = 0
KONS 141750Z 24006KT 30/08 A2998 RMK A01 T02970078  RH  026%=      5-min Rain = 0
KONS 141755Z 24005KT 29/08 A2998 RMK A01 T02930079  RH  026%=      5-min Rain = 0
KONS 141800Z 19006KT 29/08 A2998 RMK A01 T02920076  RH  026%=      5-min Rain = 0
KONS 141805Z 19008KT 30/07 A2998 RMK A01 T02960072  RH  025%=      5-min Rain = 0
KONS 141810Z 19007KT 30/06 A2998 RMK A01 T02970057  RH  022%=      5-min Rain = 0
KONS 141815Z 19007KT 30/06 A2998 RMK A01 T03010057  RH  022%=      5-min Rain = 0
KONS 141820Z 17005KT 30/06 A2998 RMK A01 T02980063  RH  023%=      5-min Rain = 0
KONS 141825Z 16008KT 30/07 A2998 RMK A01 T03010070  RH  024%=      5-min Rain = 0
KONS 141830Z 18006G11KT 31/08 A2998 RMK A01 T03090077  RH  024%=      5-min Rain = 0
KONS 141835Z 15007G14KT 31/07 A2997 RMK A01 T03070073  RH  024%=      5-min Rain = 0
KONS 141840Z 18008KT 30/07 A2997 RMK A01 T03040068  RH  023%=      5-min Rain = 0
KONS 141845Z 18008G13KT 30/08 A2997 RMK A01 T03030077  RH  025%=      5-min Rain = 0
KONS 141850Z 16006KT 31/08 A2997 RMK A01 T03070077  RH  024%=      5-min Rain = 0
KONS 141855Z 16011G17KT 31/09 A2997 RMK A01 T03100089  RH  026%=      5-min Rain = 0
KONS 141900Z 14012G20KT 31/09 A2996 RMK A01 T03050091  RH  027%=      5-min Rain = 0
KONS 141905Z 15010KT 30/09 A2996 RMK A01 T03020091  RH  027%=      5-min Rain = 0
KONS 141910Z 18009KT 31/09 A2996 RMK A01 T03060089  RH  026%=      5-min Rain = 0
KONS 141915Z 18005G10KT 31/09 A2996 RMK A01 T03080086  RH  026%=      5-min Rain = 0
KONS 141920Z 17008G14KT 31/08 A2996 RMK A01 T03090082  RH  025%=      5-min Rain = 0
KONS 141925Z 17007KT 31/08 A2996 RMK A01 T03070077  RH  024%=      5-min Rain = 0
KONS 141930Z 16010KT 31/08 A2995 RMK A01 T03060075  RH  024%=      5-min Rain = 0
KONS 141935Z 18009G16KT 31/08 A2995 RMK A01 T03070077  RH  024%=      5-min Rain = 0
KONS 141940Z 20009KT 31/08 A2995 RMK A01 T03110076  RH  023%=      5-min Rain = 0
KONS 141945Z 21007KT 31/08 A2995 RMK A01 T03100078  RH  024%=      5-min Rain = 0
KONS 141950Z 17006KT 31/08 A2995 RMK A01 T03070078  RH  024%=      5-min Rain = 0
KONS 141955Z 18007G12KT 31/08 A2995 RMK A01 T03100078  RH  024%=      5-min Rain = 0
KONS 142000Z 18010KT 32/07 A2994 RMK A01 T03200068  RH  021%=      5-min Rain = 0
KONS 142005Z 21008G14KT 32/07 A2994 RMK A01 T03170067  RH  021%=      5-min Rain = 0
KONS 142010Z 17009KT 32/07 A2994 RMK A01 T03200069  RH  021%=      5-min Rain = 0
KONS 142015Z 14008G13KT 32/07 A2993 RMK A01 T03220069  RH  021%=      5-min Rain = 0
KONS 142020Z 16011KT 32/06 A2993 RMK A01 T03240059  RH  019%=      5-min Rain = 0
KONS 142025Z 15008G13KT 32/05 A2992 RMK A01 T03220049  RH  018%=      5-min Rain = 0
KONS 142030Z 18010G16KT 33/05 A2992 RMK A01 T03260047  RH  018%=      5-min Rain = 0
KONS 142035Z 18008KT 32/04 A2991 RMK A01 T03210043  RH  018%=      5-min Rain = 0
KONS 142040Z 18008KT 31/05 A2991 RMK A01 T03120051  RH  020%=      5-min Rain = 0
KONS 142045Z 20009KT 31/07 A299 RMK A01 T03070065  RH  022%=      5-min Rain = 0
KONS 142050Z 21010KT 31/07 A299 RMK A01 T03050065  RH  022%=      5-min Rain = 0
KONS 142055Z 21010KT 30/06 A299 RMK A01 T03040061  RH  022%=      5-min Rain = 0
KONS 142100Z 20010KT 30/06 A2989 RMK A01 T03020064  RH  023%=      5-min Rain = 0
KONS 142105Z 19012G17KT 30/06 A2989 RMK A01 T02970061  RH  023%=      5-min Rain = 0
KONS 142110Z 20011KT 30/06 A2989 RMK A01 T02960056  RH  022%=      5-min Rain = 0
KONS 142115Z 21012KT 30/05 A299 RMK A01 T02970050  RH  021%=      5-min Rain = 0
KONS 142120Z 22012KT 30/05 A2991 RMK A01 T02980045  RH  020%=      5-min Rain = 0
KONS 142125Z 22010KT 30/05 A2991 RMK A01 T02970049  RH  021%=      5-min Rain = 0
KONS 142130Z 26014G25KT 29/07 A2991 RMK A01 T02890066  RH  025%=      5-min Rain = 0
KONS 142135Z 27015G27KT 27/08 A2992 RMK A01 T02710080  RH  030%=      5-min Rain = 0
KONS 142140Z 27018G23KT 26/07 A2992 RMK A01 T02600072  RH  031%=      5-min Rain = 0
KONS 142145Z 28018G26KT 25/07 A2992 RMK A01 T02540067  RH  031%=      5-min Rain = 0
KONS 142150Z 28017G23KT 25/07 A2991 RMK A01 T02480069  RH  032%=      5-min Rain = 0
KONS 142155Z 29015G21KT 25/07 A2991 RMK A01 T02520065  RH  031%=      5-min Rain = 0
KONS 142200Z 28014KT 26/06 A299 RMK A01 T02570058  RH  028%=      5-min Rain = 0
KONS 142205Z 28013KT 27/04 A2989 RMK A01 T02650041  RH  024%=      5-min Rain = 0
KONS 142210Z 28007KT 27/03 A2989 RMK A01 T02730033  RH  022%=      5-min Rain = 0
KONS 142215Z 30003KT 28/03 A2988 RMK A01 T02780032  RH  021%=      5-min Rain = 0
KONS 142220Z 02003KT 28/04 A2987 RMK A01 T02790043  RH  022%=      5-min Rain = 0
KONS 142225Z 06001KT 28/04 A2988 RMK A01 T02810044  RH  022%=      5-min Rain = 0
KONS 142230Z 22001KT 29/04 A2988 RMK A01 T02850040  RH  021%=      5-min Rain = 0
KONS 142235Z 25003KT 29/03 A2987 RMK A01 T02910031  RH  019%=      5-min Rain = 0
KONS 142240Z 26004KT 30/02 A2987 RMK A01 T03000018  RH  017%=      5-min Rain = 0
KONS 142245Z 26005KT 31/02 A2987 RMK A01 T03070017  RH  016%=      5-min Rain = 0
KONS 142250Z 25008KT 31/03 A2987 RMK A01 T03130028  RH  017%=      5-min Rain = 0
KONS 142255Z 24008KT 32/02 A2987 RMK A01 T03150019  RH  015%=      5-min Rain = 0
KONS 142300Z 24007KT 32/02 A2987 RMK A01 T03160015  RH  015%=      5-min Rain = 0
KONS 142305Z 22007KT 32/01 A2987 RMK A01 T03180014  RH  015%=      5-min Rain = 0
KONS 142310Z 19007KT 32/01 A2986 RMK A01 T03200007  RH  014%=      5-min Rain = 0
KONS 142315Z 18009KT 32/01 A2986 RMK A01 T03210008  RH  014%=      5-min Rain = 0
KONS 142320Z 16009KT 32/01 A2986 RMK A01 T03210005  RH  013%=      5-min Rain = 0
KONS 142325Z 14006KT 32/01 A2986 RMK A01 T03210007  RH  014%=      5-min Rain = 0
KONS 142330Z 11011G16KT 32/03 A2986 RMK A01 T03160030  RH  017%=      5-min Rain = 0
KONS 142335Z 09012KT 30/04 A2986 RMK A01 T03040041  RH  019%=      5-min Rain = 0
KONS 142340Z 08017G22KT 30/07 A2986 RMK A01 T02970071  RH  025%=      5-min Rain = 0
KONS 142345Z 07018G23KT 30/06 A2985 RMK A01 T02950063  RH  024%=      5-min Rain = 0
KONS 142350Z 08019KT 29/07 A2985 RMK A01 T02930068  RH  025%=      5-min Rain = 0
KONS 142355Z 09017KT 29/08 A2986 RMK A01 T02890075  RH  026%=      5-min Rain = 0
KONS 150000Z 09015KT 29/08 A2986 RMK A01 T02860079  RH  028%=      5-min Rain = 0
KONS 150005Z 09016G21KT 28/08 A2986 RMK A01 T02830079  RH  028%=      5-min Rain = 0
KONS 150010Z 10015KT 28/08 A2985 RMK A01 T02810079  RH  029%=      5-min Rain = 0
KONS 150015Z 10015KT 28/07 A2986 RMK A01 T02800071  RH  027%=      5-min Rain = 0
KONS 150020Z 09014KT 28/07 A2986 RMK A01 T02770072  RH  028%=      5-min Rain = 0
KONS 150025Z 10013KT 28/07 A2986 RMK A01 T02770069  RH  027%=      5-min Rain = 0
KONS 150030Z 11012KT 28/07 A2986 RMK A01 T02770074  RH  028%=      5-min Rain = 0
KONS 150035Z 10014KT 28/08 A2986 RMK A01 T02760075  RH  029%=      5-min Rain = 0
KONS 150040Z 11015KT 28/07 A2986 RMK A01 T02750071  RH  028%=      5-min Rain = 0
KONS 150045Z 11015KT 28/07 A2986 RMK A01 T02750074  RH  028%=      5-min Rain = 0
KONS 150050Z 11016KT 27/07 A2986 RMK A01 T02740074  RH  029%=      5-min Rain = 0
KONS 150055Z 11018G25KT 27/08 A2987 RMK A01 T02740080  RH  030%=      5-min Rain = 0
KONS 150100Z 10020G25KT 27/09 A2987 RMK A01 T02660094  RH  034%=      5-min Rain = 0
KONS 150105Z 10021G26KT 26/10 A2987 RMK A01 T02580100  RH  038%=      5-min Rain = 0
KONS 150110Z 10021G27KT 25/11 A2988 RMK A01 T02520108  RH  041%=      5-min Rain = 0
KONS 150115Z 10021KT 25/11 A2988 RMK A01 T02470110  RH  043%=      5-min Rain = 0
KONS 150120Z 10019KT 24/11 A2988 RMK A01 T02420105  RH  043%=      5-min Rain = 0
KONS 150125Z 11020G25KT 24/10 A2988 RMK A01 T02360101  RH  043%=      5-min Rain = 0
KONS 150130Z 11018G23KT 23/10 A2989 RMK A01 T02310100  RH  044%=      5-min Rain = 0
KONS 150135Z 11018G23KT 23/10 A2989 RMK A01 T02290100  RH  045%=      5-min Rain = 0
KONS 150140Z 11017G22KT 23/10 A2989 RMK A01 T02280100  RH  045%=      5-min Rain = 0
KONS 150145Z 11016G22KT 23/10 A2989 RMK A01 T02270101  RH  046%=      5-min Rain = 0
KONS 150150Z 11016KT 23/10 A2989 RMK A01 T02260100  RH  046%=      5-min Rain = 0
KONS 150155Z 11016G21KT 22/10 A2989 RMK A01 T02240098  RH  045%=      5-min Rain = 0
KONS 150200Z 11017G24KT 22/10 A299 RMK A01 T02230097  RH  046%=      5-min Rain = 0
KONS 150205Z 11018KT 22/10 A299 RMK A01 T02220096  RH  045%=      5-min Rain = 0
KONS 150210Z 11017G23KT 22/10 A299 RMK A01 T02210095  RH  045%=      5-min Rain = 0
KONS 150215Z 11017G22KT 22/10 A299 RMK A01 T02210095  RH  045%=      5-min Rain = 0
KONS 150220Z 11016G21KT 22/10 A299 RMK A01 T02200096  RH  046%=      5-min Rain = 0
KONS 150225Z 11015G22KT 22/10 A299 RMK A01 T02200096  RH  046%=      5-min Rain = 0
KONS 150230Z 11016G21KT 22/10 A2991 RMK A01 T02200095  RH  046%=      5-min Rain = 0
KONS 150235Z 11016KT 22/09 A2991 RMK A01 T02200094  RH  045%=      5-min Rain = 0
KONS 150240Z 11016G22KT 22/09 A2991 RMK A01 T02200094  RH  045%=      5-min Rain = 0
KONS 150245Z 11016G21KT 22/09 A2992 RMK A01 T02190094  RH  045%=      5-min Rain = 0
KONS 150250Z 11016KT 22/09 A2992 RMK A01 T02180094  RH  046%=      5-min Rain = 0
KONS 150255Z 11016KT 22/10 A2992 RMK A01 T02160097  RH  047%=      5-min Rain = 0
KONS 150300Z 11015KT 21/10 A2992 RMK A01 T02140099  RH  048%=      5-min Rain = 0
KONS 150305Z 11014KT 21/10 A2993 RMK A01 T02130101  RH  049%=      5-min Rain = 0
KONS 150310Z 11014KT 21/10 A2993 RMK A01 T02120103  RH  050%=      5-min Rain = 0
KONS 150315Z 11014KT 21/11 A2993 RMK A01 T02120105  RH  051%=      5-min Rain = 0
KONS 150320Z 11016G21KT 21/11 A2993 RMK A01 T02120109  RH  053%=      5-min Rain = 0
KONS 150325Z 10017KT 21/11 A2993 RMK A01 T02120112  RH  054%=      5-min Rain = 0
KONS 150330Z 10018KT 21/11 A2993 RMK A01 T02120113  RH  054%=      5-min Rain = 0
KONS 150335Z 10017KT 21/11 A2993 RMK A01 T02110113  RH  055%=      5-min Rain = 0
KONS 150340Z 11017KT 21/12 A2994 RMK A01 T02100117  RH  056%=      5-min Rain = 0
KONS 150345Z 12012G17KT 21/12 A2994 RMK A01 T02070119  RH  058%=      5-min Rain = 0
KONS 150350Z 11016G21KT 21/12 A2994 RMK A01 T02070122  RH  059%=      5-min Rain = 0
KONS 150355Z 11013G18KT 21/12 A2995 RMK A01 T02050124  RH  061%=      5-min Rain = 0
KONS 150400Z 10014KT 20/13 A2995 RMK A01 T02040126  RH  062%=      5-min Rain = 0
KONS 150405Z 10014KT 20/13 A2995 RMK A01 T02020129  RH  064%=      5-min Rain = 0
KONS 150410Z 11012KT 20/13 A2995 RMK A01 T02010132  RH  065%=      5-min Rain = 0
KONS 150415Z 10012KT 20/13 A2995 RMK A01 T02020133  RH  066%=      5-min Rain = 0
KONS 150420Z 10012KT 20/13 A2996 RMK A01 T02040131  RH  064%=      5-min Rain = 0
KONS 150425Z 11014G20KT 21/13 A2996 RMK A01 T02090133  RH  063%=      5-min Rain = 0
KONS 150430Z 10014KT 21/13 A2996 RMK A01 T02090134  RH  063%=      5-min Rain = 0
KONS 150435Z 10012KT 21/13 A2996 RMK A01 T02080133  RH  063%=      5-min Rain = 0
KONS 150440Z 10010KT 21/13 A2996 RMK A01 T02060132  RH  064%=      5-min Rain = 0
KONS 150445Z 10009KT 20/13 A2996 RMK A01 T02030132  RH  065%=      5-min Rain = 0
KONS 150450Z 10009KT 20/13 A2997 RMK A01 T02020131  RH  065%=      5-min Rain = 0
KONS 150455Z 11010KT 21/13 A2997 RMK A01 T02050128  RH  063%=      5-min Rain = 0

Page generated in 0.0508 seconds.